Terminal Aerodrome Forecast
Issued by NWS Melbourne, FL

Home | Current Version | Previous Version | Text Only | Print | Product List | Glossary On
Versions: 1 2 3 4 5 6 7 8 9 10 11 12
000
FTUS42 KMLB 251120
TAFDAB
TAF
KDAB 251120Z 2512/2612 VRB02KT P6SM FEW110 SCT250
     FM251400 10006KT P6SM FEW030
     FM251700 09008KT P6SM VCTS SCT030CB BKN060
      TEMPO 2518/2521 3SM TSRA BKN020CB OVC040
     FM252200 14007KT P6SM FEW050 SCT100=

USA.gov is the U.S. government's official web portal to all federal, state and local government web resources and services.